Huvudsida
METAR-TAF:

METAR-TAF

Flygplatser :

Skövde, Sverige

latitud: 58-27N, longitud: 013-58E, höjd: 98 m

Aktuellt väderrapport

Denna rapport gjordes för 18 minuter sedan, klockan 22:50 UTC
Stilla vind
Temperatur -11°C
Fuktighet 100%
Tryck 1012 hPa
Sikt: 6000 m
fuktdis

METAR: ESGR 232250Z AUTO 00000KT 6000 BR NCD M11/M11 Q1012

Tid: 00:08 (23:08 UTC)


TAF: saknas

Aktuella väderrapporter och prognoser från 4000 flygplatser (METAR- och TAF-rapporter).

De tillgängliga stationerna syns som gula och röda prickar på kartan.

För musen över prickarna för att se namnen på stationerna.

Klicka sedan för att få väderrapporter och prognoser.

För att ändra kartan: Klicka på de gröna knapparna med ett svart kors på för att zooma in; den gröna knappen med ett streck på för att zooma ut; eller på de gröna pilarna för angränsande kartor.


METAR-TAF: